createdAt,value
2019-05-11T00:00:19.567Z,12.40
2019-05-11T00:01:19.533Z,12.38
2019-05-11T00:02:19.519Z,12.34
2019-05-11T00:03:19.517Z,12.37
2019-05-11T00:04:19.503Z,12.37
2019-05-11T00:05:19.489Z,12.46
2019-05-11T00:06:19.483Z,12.41
2019-05-11T00:07:19.474Z,12.49
2019-05-11T00:08:19.541Z,12.58
2019-05-11T00:09:19.441Z,12.51
2019-05-11T00:10:23.218Z,12.46
2019-05-11T00:11:19.425Z,12.52
2019-05-11T00:12:19.410Z,12.56
2019-05-11T00:13:19.407Z,12.55
2019-05-11T00:14:19.384Z,12.58
2019-05-11T00:15:19.470Z,12.77
2019-05-11T00:16:19.384Z,12.76
2019-05-11T00:17:19.351Z,12.81
2019-05-11T00:18:19.361Z,12.99
2019-05-11T00:19:19.339Z,12.84
2019-05-11T00:20:19.383Z,12.91
2019-05-11T00:21:19.311Z,12.89
2019-05-11T00:22:19.296Z,12.98
2019-05-11T00:23:19.350Z,13.04
2019-05-11T00:24:19.281Z,13.01
2019-05-11T00:25:19.276Z,12.96
2019-05-11T00:26:19.272Z,12.99
2019-05-11T00:27:19.252Z,12.95
2019-05-11T00:28:19.244Z,13.01
2019-05-11T00:29:19.222Z,13.01
2019-05-11T00:30:19.214Z,12.98
2019-05-11T00:31:19.268Z,13.04
2019-05-11T00:32:22.651Z,13.12
2019-05-11T00:33:19.213Z,13.14
2019-05-11T00:34:19.221Z,13.14
2019-05-11T00:35:19.184Z,13.19
2019-05-11T00:36:19.189Z,13.24
2019-05-11T00:37:19.198Z,13.25
2019-05-11T00:38:19.144Z,13.21
2019-05-11T00:39:19.125Z,13.16
2019-05-11T00:40:19.105Z,13.21
2019-05-11T00:41:19.161Z,13.16
2019-05-11T00:42:19.083Z,13.22
2019-05-11T00:43:19.092Z,13.13
2019-05-11T00:44:19.068Z,13.14
2019-05-11T00:45:19.054Z,13.21
2019-05-11T00:46:19.039Z,13.22
2019-05-11T00:47:19.063Z,13.28
2019-05-11T00:48:19.036Z,13.28
2019-05-11T00:49:19.011Z,13.25
2019-05-11T00:50:18.998Z,13.46
2019-05-11T00:51:18.989Z,13.38
2019-05-11T00:52:18.975Z,13.41
2019-05-11T00:53:19.003Z,13.39
2019-05-11T00:54:18.951Z,13.53
2019-05-11T00:55:18.948Z,13.65
2019-05-11T00:56:18.929Z,13.65
2019-05-11T00:57:18.926Z,13.62
2019-05-11T00:58:18.937Z,13.71
2019-05-11T00:59:21.657Z,13.71
2019-05-11T01:00:18.898Z,13.69
2019-05-11T01:01:18.889Z,13.72
2019-05-11T01:02:18.873Z,13.68
2019-05-11T01:03:18.858Z,13.69
2019-05-11T01:04:18.853Z,13.73
2019-05-11T01:05:18.837Z,13.75
2019-05-11T01:06:18.841Z,13.68
2019-05-11T01:07:18.879Z,13.75
2019-05-11T01:08:18.797Z,13.69
2019-05-11T01:09:18.801Z,13.71
2019-05-11T01:10:25.632Z,13.68
2019-05-11T01:11:19.769Z,13.61
2019-05-11T01:12:18.754Z,13.57
2019-05-11T01:13:18.817Z,13.55
2019-05-11T01:14:18.741Z,13.65
2019-05-11T01:15:18.721Z,13.57
2019-05-11T01:16:18.714Z,13.53
2019-05-11T01:17:18.707Z,13.44
2019-05-11T01:18:18.688Z,13.41
2019-05-11T01:19:18.692Z,13.44
2019-05-11T01:20:18.852Z,13.55
2019-05-11T01:21:18.698Z,13.48
2019-05-11T01:22:18.644Z,13.53
2019-05-11T01:23:18.799Z,13.55
2019-05-11T01:24:18.633Z,13.55
2019-05-11T01:25:18.612Z,13.65
2019-05-11T01:26:18.600Z,13.50
2019-05-11T01:27:18.606Z,13.51
2019-05-11T01:28:18.634Z,13.50
2019-05-11T01:29:18.577Z,13.53
2019-05-11T01:30:18.564Z,13.54
2019-05-11T01:31:18.548Z,13.51
2019-05-11T01:32:18.535Z,13.54
2019-05-11T01:33:18.528Z,13.59
2019-05-11T01:34:18.531Z,13.69
2019-05-11T01:35:18.539Z,13.73
2019-05-11T01:36:18.502Z,13.69
2019-05-11T01:37:18.481Z,13.75
2019-05-11T01:38:18.474Z,13.84
2019-05-11T01:39:18.590Z,13.84
2019-05-11T01:40:18.449Z,13.87
2019-05-11T01:41:18.481Z,13.81
2019-05-11T01:42:18.427Z,13.87
2019-05-11T01:43:18.416Z,13.87
2019-05-11T01:44:18.414Z,13.91
2019-05-11T01:45:18.405Z,13.94
2019-05-11T01:46:18.386Z,13.93
2019-05-11T01:47:18.383Z,13.94
2019-05-11T01:48:18.412Z,13.94
2019-05-11T01:49:18.389Z,13.96
2019-05-11T01:50:18.346Z,14.11
2019-05-11T01:51:18.341Z,14.23
2019-05-11T01:52:18.317Z,14.31
2019-05-11T01:53:18.307Z,14.27
2019-05-11T01:54:18.320Z,14.29
2019-05-11T01:55:18.283Z,14.20
2019-05-11T01:56:18.263Z,14.16
2019-05-11T01:57:18.247Z,14.17
2019-05-11T01:58:18.246Z,14.24
2019-05-11T01:59:18.229Z,14.27
2019-05-11T02:00:18.233Z,14.36
2019-05-11T02:01:18.260Z,14.48
2019-05-11T02:02:18.211Z,14.46
2019-05-11T02:03:18.231Z,14.49
2019-05-11T02:04:18.228Z,14.49
2019-05-11T02:05:18.195Z,14.53
2019-05-11T02:06:18.151Z,14.63
2019-05-11T02:07:18.145Z,14.64
2019-05-11T02:08:18.130Z,14.66
2019-05-11T02:09:18.119Z,14.67
2019-05-11T02:10:18.150Z,14.87
2019-05-11T02:11:18.100Z,14.83
2019-05-11T02:12:18.084Z,14.75
2019-05-11T02:13:18.073Z,14.85
2019-05-11T02:14:18.061Z,14.90
2019-05-11T02:15:18.081Z,14.93
2019-05-11T02:16:18.068Z,14.97
2019-05-11T02:17:18.032Z,15.01
2019-05-11T02:18:18.016Z,15.09
2019-05-11T02:19:18.031Z,15.00
2019-05-11T02:20:18.053Z,14.95
2019-05-11T02:21:17.987Z,15.03
2019-05-11T02:22:17.978Z,14.85
2019-05-11T02:23:17.963Z,14.95
2019-05-11T02:24:17.957Z,15.03
2019-05-11T02:25:17.971Z,15.00
2019-05-11T02:26:17.959Z,15.15
2019-05-11T02:27:17.959Z,15.12
2019-05-11T02:28:17.912Z,15.13
2019-05-11T02:29:17.897Z,15.19
2019-05-11T02:30:17.904Z,15.16
2019-05-11T02:31:17.880Z,15.25
2019-05-11T02:32:17.881Z,15.18
2019-05-11T02:33:17.893Z,15.16
2019-05-11T02:34:17.842Z,15.22
2019-05-11T02:35:17.847Z,15.27
2019-05-11T02:36:17.828Z,15.30
2019-05-11T02:37:17.816Z,15.25
2019-05-11T02:38:17.800Z,15.28
2019-05-11T02:39:17.792Z,15.15
2019-05-11T02:40:17.806Z,15.20
2019-05-11T02:41:34.481Z,15.19
2019-05-11T02:42:18.801Z,15.22
2019-05-11T02:43:17.751Z,15.25
2019-05-11T02:44:17.734Z,15.25
2019-05-11T02:45:17.738Z,15.22
2019-05-11T02:46:17.718Z,15.20
2019-05-11T02:47:17.701Z,15.20
2019-05-11T02:48:17.692Z,15.23
2019-05-11T02:49:17.692Z,15.22
2019-05-11T02:50:17.684Z,15.23
2019-05-11T02:51:17.655Z,15.33
2019-05-11T02:52:17.644Z,15.34
2019-05-11T02:53:17.647Z,15.25
2019-05-11T02:54:17.653Z,15.18
2019-05-11T02:55:17.626Z,15.19
2019-05-11T02:56:17.598Z,15.38
2019-05-11T02:57:17.592Z,15.41
2019-05-11T02:58:17.585Z,15.40
2019-05-11T02:59:17.566Z,15.46
2019-05-11T03:00:17.623Z,15.51
2019-05-11T03:01:17.547Z,15.53
2019-05-11T03:02:17.535Z,15.53
2019-05-11T03:03:17.540Z,15.51
2019-05-11T03:04:17.511Z,15.51
2019-05-11T03:05:17.516Z,15.46
2019-05-11T03:06:17.557Z,15.46
2019-05-11T03:07:17.484Z,15.58
2019-05-11T03:08:17.472Z,15.55
2019-05-11T03:09:17.454Z,15.62
2019-05-11T03:10:17.457Z,15.59
2019-05-11T03:11:17.449Z,15.56
2019-05-11T03:12:17.459Z,15.59
2019-05-11T03:13:17.418Z,15.60
2019-05-11T03:14:17.401Z,15.52
2019-05-11T03:15:17.390Z,15.60
2019-05-11T03:16:17.394Z,15.59
2019-05-11T03:17:17.372Z,15.67
2019-05-11T03:18:17.463Z,15.62
2019-05-11T03:19:17.364Z,15.55
2019-05-11T03:20:17.335Z,15.66
2019-05-11T03:21:17.338Z,15.62
2019-05-11T03:22:17.312Z,15.51
2019-05-11T03:23:17.307Z,15.48
2019-05-11T03:24:17.296Z,15.64
2019-05-11T03:25:17.294Z,15.62
2019-05-11T03:26:17.286Z,15.62
2019-05-11T03:27:17.262Z,15.70
2019-05-11T03:28:17.254Z,15.59
2019-05-11T03:29:17.246Z,15.64
2019-05-11T03:30:17.266Z,15.62
2019-05-11T03:31:17.348Z,15.56
2019-05-11T03:32:17.203Z,15.52
2019-05-11T03:33:17.196Z,15.49
2019-05-11T03:34:17.189Z,15.40
2019-05-11T03:35:17.171Z,15.40
2019-05-11T03:36:17.178Z,15.55
2019-05-11T03:37:17.155Z,15.41
2019-05-11T03:38:17.145Z,15.51
2019-05-11T03:39:17.141Z,15.48
2019-05-11T03:40:17.133Z,15.53
2019-05-11T03:41:17.116Z,15.52
2019-05-11T03:42:17.104Z,15.38
2019-05-11T03:43:17.081Z,15.58
2019-05-11T03:44:17.069Z,15.56
2019-05-11T03:45:17.062Z,15.59
2019-05-11T03:46:17.062Z,15.64
2019-05-11T03:47:17.074Z,15.66
2019-05-11T03:48:17.036Z,15.58
2019-05-11T03:49:17.018Z,15.64
2019-05-11T03:50:17.062Z,15.64
2019-05-11T03:51:17.011Z,15.64
2019-05-11T03:52:16.982Z,15.60
2019-05-11T03:53:17.021Z,15.56
2019-05-11T03:54:16.963Z,15.55
2019-05-11T03:55:16.967Z,15.66
2019-05-11T03:56:17.007Z,15.62
2019-05-11T03:57:16.927Z,15.62
2019-05-11T03:58:16.928Z,15.68
2019-05-11T03:59:16.908Z,15.58
2019-05-11T04:00:16.899Z,15.60
2019-05-11T04:01:16.912Z,15.46
2019-05-11T04:02:16.872Z,15.53
2019-05-11T04:03:16.871Z,15.56
2019-05-11T04:04:16.993Z,15.37
2019-05-11T04:05:16.853Z,15.43
2019-05-11T04:06:16.858Z,15.27
2019-05-11T04:07:16.824Z,15.31
2019-05-11T04:08:16.836Z,15.25
2019-05-11T04:09:16.806Z,15.27
2019-05-11T04:10:16.801Z,15.27
2019-05-11T04:11:16.792Z,15.43
2019-05-11T04:12:33.428Z,15.41
2019-05-11T04:13:17.757Z,15.40
2019-05-11T04:14:16.775Z,15.43
2019-05-11T04:15:16.739Z,15.38
2019-05-11T04:16:16.770Z,15.41
2019-05-11T04:17:16.801Z,15.41
2019-05-11T04:18:16.718Z,15.37
2019-05-11T04:19:16.694Z,15.37
2019-05-11T04:20:16.692Z,15.23
2019-05-11T04:21:16.708Z,15.37
2019-05-11T04:22:16.676Z,15.44
2019-05-11T04:23:16.649Z,15.43
2019-05-11T04:24:16.644Z,15.37
2019-05-11T04:25:16.638Z,15.38
2019-05-11T04:26:16.648Z,15.41
2019-05-11T04:27:19.521Z,15.41
2019-05-11T04:28:16.595Z,15.33
2019-05-11T04:29:16.604Z,15.35
2019-05-11T04:30:16.583Z,15.27
2019-05-11T04:31:16.560Z,15.28
2019-05-11T04:32:16.569Z,15.30
2019-05-11T04:33:16.544Z,15.35
2019-05-11T04:34:16.540Z,15.35
2019-05-11T04:35:16.512Z,15.37
2019-05-11T04:36:16.522Z,15.38
2019-05-11T04:37:16.503Z,15.34
2019-05-11T04:38:16.485Z,15.43
2019-05-11T04:39:16.505Z,15.38
2019-05-11T04:40:16.464Z,15.49
2019-05-11T04:41:16.454Z,15.44
2019-05-11T04:42:16.453Z,15.41
2019-05-11T04:43:16.426Z,15.35
2019-05-11T04:44:16.438Z,15.33
2019-05-11T04:45:16.402Z,15.33
2019-05-11T04:46:16.432Z,15.30
2019-05-11T04:47:16.394Z,15.41
2019-05-11T04:48:16.368Z,15.41
2019-05-11T04:49:16.374Z,15.40
2019-05-11T04:50:16.348Z,15.37
2019-05-11T04:51:16.337Z,15.41
2019-05-11T04:52:16.348Z,15.41
2019-05-11T04:53:16.317Z,15.31
2019-05-11T04:54:16.331Z,15.38
2019-05-11T04:55:16.296Z,15.28
2019-05-11T04:56:16.306Z,15.28
2019-05-11T04:57:16.306Z,15.30
2019-05-11T04:58:16.318Z,15.34
2019-05-11T04:59:16.315Z,15.40
2019-05-11T05:00:16.238Z,15.41
2019-05-11T05:01:16.235Z,15.40
2019-05-11T05:02:16.255Z,15.40
2019-05-11T05:03:16.204Z,15.44
2019-05-11T05:04:16.192Z,15.46
2019-05-11T05:05:16.182Z,15.41
2019-05-11T05:06:24.481Z,15.64
2019-05-11T05:07:17.173Z,15.62
2019-05-11T05:08:16.153Z,15.62
2019-05-11T05:09:16.174Z,15.62
2019-05-11T05:10:20.046Z,15.62
2019-05-11T05:11:17.126Z,15.56
2019-05-11T05:12:16.116Z,15.60
2019-05-11T05:13:16.117Z,15.58
2019-05-11T05:14:16.100Z,15.66
2019-05-11T05:15:16.083Z,15.68
2019-05-11T05:16:16.070Z,15.67
2019-05-11T05:17:16.062Z,15.70
2019-05-11T05:18:16.043Z,15.66
2019-05-11T05:19:16.028Z,15.68
2019-05-11T05:20:16.017Z,15.66
2019-05-11T05:21:16.007Z,15.66
2019-05-11T05:22:16.023Z,15.71
2019-05-11T05:23:15.993Z,15.68
2019-05-11T05:24:15.977Z,15.74
2019-05-11T05:25:15.970Z,15.74
2019-05-11T05:26:15.964Z,15.91
2019-05-11T05:27:15.963Z,15.89
2019-05-11T05:28:15.934Z,15.91
2019-05-11T05:29:15.928Z,15.95
2019-05-11T05:30:15.908Z,15.93
2019-05-11T05:31:15.896Z,15.93
2019-05-11T05:32:15.902Z,15.96
2019-05-11T05:33:15.885Z,16.03
2019-05-11T05:34:15.884Z,15.99
2019-05-11T05:35:15.859Z,15.98
2019-05-11T05:36:15.841Z,15.95
2019-05-11T05:37:15.858Z,15.89
2019-05-11T05:38:15.848Z,15.92
2019-05-11T05:39:15.809Z,15.92
2019-05-11T05:40:15.800Z,15.86
2019-05-11T05:41:15.792Z,15.89
2019-05-11T05:42:15.788Z,15.93
2019-05-11T05:43:25.978Z,15.91
2019-05-11T05:44:16.762Z,15.95
2019-05-11T05:45:15.748Z,16.11
2019-05-11T05:46:15.746Z,16.08
2019-05-11T05:47:15.746Z,16.32
2019-05-11T05:48:15.718Z,16.37
2019-05-11T05:49:15.705Z,16.29
2019-05-11T05:50:15.764Z,16.17
2019-05-11T05:51:15.681Z,16.13
2019-05-11T05:52:15.690Z,16.17
2019-05-11T05:53:15.674Z,16.16
2019-05-11T05:54:15.649Z,16.18
2019-05-11T05:55:15.642Z,16.17
2019-05-11T05:56:15.642Z,16.27
2019-05-11T05:57:15.613Z,16.26
2019-05-11T05:58:15.634Z,16.13
2019-05-11T05:59:15.596Z,16.22
2019-05-11T06:00:15.613Z,16.16
2019-05-11T06:01:15.569Z,16.08
2019-05-11T06:02:15.560Z,16.04
2019-05-11T06:03:15.562Z,16.10
2019-05-11T06:04:15.558Z,15.98
2019-05-11T06:05:15.536Z,16.18
2019-05-11T06:06:15.521Z,16.13
2019-05-11T06:07:15.509Z,16.26
2019-05-11T06:08:15.512Z,16.60
2019-05-11T06:09:15.486Z,16.80
2019-05-11T06:10:15.479Z,16.85
2019-05-11T06:11:15.464Z,17.28
2019-05-11T06:12:15.463Z,17.76
2019-05-11T06:13:15.457Z,18.21
2019-05-11T06:14:15.446Z,18.51
2019-05-11T06:15:15.436Z,18.65
2019-05-11T06:16:15.434Z,18.82
2019-05-11T06:17:15.423Z,18.96
2019-05-11T06:18:15.435Z,18.90
2019-05-11T06:19:15.420Z,18.38
2019-05-11T06:20:15.362Z,18.29
2019-05-11T06:21:15.353Z,18.46
2019-05-11T06:22:15.351Z,18.41
2019-05-11T06:23:15.349Z,18.01
2019-05-11T06:24:15.342Z,17.83
2019-05-11T06:25:15.371Z,17.42
2019-05-11T06:26:15.338Z,17.02
2019-05-11T06:27:15.287Z,16.84
2019-05-11T06:28:15.339Z,16.77
2019-05-11T06:29:15.263Z,16.80
2019-05-11T06:30:15.269Z,17.76
2019-05-11T06:31:15.243Z,18.26
2019-05-11T06:32:15.232Z,18.82
2019-05-11T06:33:15.231Z,19.15
2019-05-11T06:34:15.207Z,19.34
2019-05-11T06:35:15.201Z,19.97
2019-05-11T06:36:15.186Z,20.08
2019-05-11T06:37:15.176Z,20.20
2019-05-11T06:38:15.176Z,20.20
2019-05-11T06:39:15.152Z,20.22
2019-05-11T06:40:15.146Z,20.16
2019-05-11T06:41:15.130Z,20.13
2019-05-11T06:42:15.144Z,19.94
2019-05-11T06:43:15.126Z,19.86
2019-05-11T06:44:15.113Z,20.13
2019-05-11T06:45:15.107Z,20.23
2019-05-11T06:46:15.079Z,19.86
2019-05-11T06:47:15.123Z,20.10
2019-05-11T06:48:15.064Z,20.20
2019-05-11T06:49:15.051Z,20.38
2019-05-11T06:50:15.041Z,20.37
2019-05-11T06:51:15.051Z,19.58
2019-05-11T06:52:15.009Z,19.46
2019-05-11T06:53:15.009Z,19.57
2019-05-11T06:54:15.000Z,18.74
2019-05-11T06:55:14.977Z,18.01
2019-05-11T06:56:14.964Z,18.02
2019-05-11T06:57:14.957Z,19.05
2019-05-11T06:58:14.970Z,19.60
2019-05-11T06:59:14.942Z,19.86
2019-05-11T07:00:14.938Z,19.97
2019-05-11T07:01:14.920Z,19.98
2019-05-11T07:02:14.899Z,20.19
2019-05-11T07:03:14.913Z,19.97
2019-05-11T07:04:14.890Z,19.76
2019-05-11T07:05:14.879Z,19.90
2019-05-11T07:06:14.855Z,20.27
2019-05-11T07:07:14.845Z,20.26
2019-05-11T07:08:14.831Z,19.97
2019-05-11T07:09:14.834Z,19.92
2019-05-11T07:10:14.818Z,20.44
2019-05-11T07:11:14.801Z,20.69
2019-05-11T07:12:14.815Z,20.91
2019-05-11T07:13:14.783Z,21.21
2019-05-11T07:14:20.331Z,21.36
2019-05-11T07:15:15.759Z,21.31
2019-05-11T07:16:14.765Z,21.16
2019-05-11T07:17:14.736Z,21.19
2019-05-11T07:18:14.725Z,20.58
2019-05-11T07:19:14.732Z,20.20
2019-05-11T07:20:14.707Z,20.37
2019-05-11T07:21:14.697Z,20.54
2019-05-11T07:22:14.682Z,20.97
2019-05-11T07:23:14.670Z,21.24
2019-05-11T07:24:14.671Z,21.05
2019-05-11T07:25:14.657Z,21.28
2019-05-11T07:26:14.637Z,21.21
2019-05-11T07:27:14.632Z,21.00
2019-05-11T07:28:14.624Z,21.00
2019-05-11T07:29:14.618Z,20.82
2019-05-11T07:30:14.607Z,21.08
2019-05-11T07:31:14.584Z,20.64
2019-05-11T07:32:22.406Z,20.76
2019-05-11T07:33:15.561Z,21.01
2019-05-11T07:34:14.567Z,21.64
2019-05-11T07:35:14.545Z,21.93
2019-05-11T07:36:14.526Z,21.94
2019-05-11T07:37:14.516Z,21.85
2019-05-11T07:38:14.509Z,21.26
2019-05-11T07:39:14.505Z,21.24
2019-05-11T07:40:14.484Z,21.16
2019-05-11T07:41:14.474Z,21.19
2019-05-11T07:42:14.462Z,21.36
2019-05-11T07:43:14.452Z,21.61
2019-05-11T07:44:14.452Z,22.17
2019-05-11T07:45:14.432Z,22.27
2019-05-11T07:46:14.422Z,22.30
2019-05-11T07:47:14.418Z,22.46
2019-05-11T07:48:14.398Z,22.61
2019-05-11T07:49:14.402Z,22.35
2019-05-11T07:50:14.379Z,21.82
2019-05-11T07:51:14.375Z,21.38
2019-05-11T07:52:14.362Z,21.51
2019-05-11T07:53:14.382Z,21.70
2019-05-11T07:54:14.393Z,21.59
2019-05-11T07:55:14.321Z,22.30
2019-05-11T07:56:14.313Z,22.24
2019-05-11T07:57:14.301Z,21.70
2019-05-11T07:58:14.294Z,21.13
2019-05-11T07:59:14.294Z,21.08
2019-05-11T08:00:14.268Z,20.98
2019-05-11T08:01:14.256Z,21.40
2019-05-11T08:02:14.247Z,21.79
2019-05-11T08:03:14.234Z,22.04
2019-05-11T08:04:14.237Z,22.45
2019-05-11T08:05:14.213Z,22.61
2019-05-11T08:06:14.203Z,22.86
2019-05-11T08:07:14.189Z,22.70
2019-05-11T08:08:14.181Z,22.36
2019-05-11T08:09:14.179Z,21.56
2019-05-11T08:10:14.166Z,21.96
2019-05-11T08:11:14.155Z,22.15
2019-05-11T08:12:14.136Z,22.42
2019-05-11T08:13:14.128Z,22.48
2019-05-11T08:14:14.124Z,22.67
2019-05-11T08:15:14.126Z,22.39
2019-05-11T08:16:14.092Z,21.79
2019-05-11T08:17:14.082Z,20.72
2019-05-11T08:18:14.071Z,20.25
2019-05-11T08:19:14.086Z,20.31
2019-05-11T08:20:14.051Z,19.92
2019-05-11T08:21:14.048Z,19.68
2019-05-11T08:22:14.027Z,19.70
2019-05-11T08:23:14.024Z,19.87
2019-05-11T08:24:14.007Z,20.41
2019-05-11T08:25:14.003Z,20.68
2019-05-11T08:26:13.986Z,20.79
2019-05-11T08:27:13.973Z,20.63
2019-05-11T08:28:13.968Z,20.69
2019-05-11T08:29:13.954Z,20.87
2019-05-11T08:30:13.953Z,20.96
2019-05-11T08:31:13.930Z,21.31
2019-05-11T08:32:13.920Z,21.31
2019-05-11T08:33:13.909Z,21.82
2019-05-11T08:34:13.898Z,22.30
2019-05-11T08:35:13.896Z,22.49
2019-05-11T08:36:13.877Z,22.30
2019-05-11T08:37:13.864Z,21.81
2019-05-11T08:38:13.854Z,21.13
2019-05-11T08:39:13.851Z,21.06
2019-05-11T08:40:13.844Z,21.81
2019-05-11T08:41:13.823Z,22.52
2019-05-11T08:42:13.812Z,22.78
2019-05-11T08:43:13.799Z,22.69
2019-05-11T08:44:13.791Z,22.75
2019-05-11T08:45:20.012Z,22.49
2019-05-11T08:46:14.767Z,23.12
2019-05-11T08:47:13.757Z,22.64
2019-05-11T08:48:13.746Z,22.72
2019-05-11T08:49:15.873Z,23.16
2019-05-11T08:50:15.395Z,23.47
2019-05-11T08:51:13.716Z,22.93
2019-05-11T08:52:13.704Z,21.51
2019-05-11T08:53:13.692Z,22.19
2019-05-11T08:54:13.680Z,23.09
2019-05-11T08:55:13.681Z,23.84
2019-05-11T08:56:13.659Z,24.09
2019-05-11T08:57:13.649Z,23.77
2019-05-11T08:58:13.641Z,23.69
2019-05-11T08:59:13.627Z,23.64
2019-05-11T09:00:13.630Z,23.69
2019-05-11T09:01:13.607Z,22.94
2019-05-11T09:02:13.600Z,22.01
2019-05-11T09:03:13.585Z,21.34
2019-05-11T09:04:13.573Z,21.01
2019-05-11T09:05:13.573Z,20.37
2019-05-11T09:06:13.553Z,19.65
2019-05-11T09:07:13.542Z,19.06
2019-05-11T09:08:13.530Z,19.71
2019-05-11T09:09:13.520Z,20.61
2019-05-11T09:10:13.521Z,20.96
2019-05-11T09:11:13.499Z,21.61
2019-05-11T09:12:13.489Z,21.86
2019-05-11T09:13:13.477Z,22.08
2019-05-11T09:14:13.466Z,22.30
2019-05-11T09:15:28.035Z,22.69
2019-05-11T09:16:15.828Z,22.56
2019-05-11T09:17:13.452Z,21.99
2019-05-11T09:18:13.472Z,22.19
2019-05-11T09:19:13.455Z,21.86
2019-05-11T09:20:13.421Z,21.81
2019-05-11T09:21:13.390Z,21.98
2019-05-11T09:22:13.380Z,21.52
2019-05-11T09:23:13.369Z,20.48
2019-05-11T09:24:13.360Z,20.63
2019-05-11T09:25:13.377Z,20.85
2019-05-11T09:26:13.336Z,20.27
2019-05-11T09:27:13.326Z,19.97
2019-05-11T09:28:13.315Z,19.49
2019-05-11T09:29:13.305Z,19.16
2019-05-11T09:30:13.294Z,18.96
2019-05-11T09:31:13.292Z,19.13
2019-05-11T09:32:13.273Z,19.49
2019-05-11T09:33:13.262Z,19.87
2019-05-11T09:34:13.249Z,19.89
2019-05-11T09:35:13.240Z,19.30
2019-05-11T09:36:13.263Z,19.67
2019-05-11T09:37:13.217Z,19.85
2019-05-11T09:38:13.207Z,19.64
2019-05-11T09:39:13.196Z,19.70
2019-05-11T09:40:13.187Z,19.78
2019-05-11T09:41:13.183Z,19.98
2019-05-11T09:42:13.165Z,20.15
2019-05-11T09:43:13.153Z,20.53
2019-05-11T09:44:13.142Z,20.71
2019-05-11T09:45:13.130Z,21.05
2019-05-11T09:46:13.134Z,21.46
2019-05-11T09:47:13.111Z,21.16
2019-05-11T09:48:13.104Z,20.83
2019-05-11T09:49:13.092Z,20.64
2019-05-11T09:50:13.078Z,21.05
2019-05-11T09:51:13.081Z,21.33
2019-05-11T09:52:13.060Z,21.59
2019-05-11T09:53:13.046Z,21.34
2019-05-11T09:54:13.038Z,21.26
2019-05-11T09:55:13.029Z,21.81
2019-05-11T09:56:13.026Z,22.15
2019-05-11T09:57:13.004Z,22.04
2019-05-11T09:58:13.004Z,21.94
2019-05-11T09:59:12.983Z,21.59
2019-05-11T10:00:12.972Z,21.64
2019-05-11T10:01:12.973Z,21.46
2019-05-11T10:02:12.954Z,21.03
2019-05-11T10:03:12.938Z,20.54
2019-05-11T10:04:12.929Z,20.37
2019-05-11T10:05:12.916Z,20.46
2019-05-11T10:06:12.918Z,20.53
2019-05-11T10:07:12.898Z,20.31
2019-05-11T10:08:12.888Z,19.83
2019-05-11T10:09:12.874Z,19.43
2019-05-11T10:10:12.863Z,19.67
2019-05-11T10:11:12.862Z,19.57
2019-05-11T10:12:12.846Z,19.58
2019-05-11T10:13:12.834Z,19.82
2019-05-11T10:14:12.819Z,20.19
2019-05-11T10:15:12.814Z,20.33
2019-05-11T10:16:12.809Z,20.54
2019-05-11T10:17:12.789Z,20.61
2019-05-11T10:18:12.781Z,20.23
2019-05-11T10:19:12.775Z,19.87
2019-05-11T10:20:12.758Z,19.49
2019-05-11T10:21:12.757Z,19.34
2019-05-11T10:22:12.734Z,19.76
2019-05-11T10:23:12.725Z,19.80
2019-05-11T10:24:12.713Z,19.85
2019-05-11T10:25:12.703Z,19.78
2019-05-11T10:26:12.708Z,19.55
2019-05-11T10:27:12.686Z,19.34
2019-05-11T10:28:12.670Z,18.93
2019-05-11T10:29:12.658Z,18.83
2019-05-11T10:30:12.649Z,18.79
2019-05-11T10:31:12.661Z,18.68
2019-05-11T10:32:12.627Z,18.39
2019-05-11T10:33:12.616Z,18.36
2019-05-11T10:34:12.605Z,18.41
2019-05-11T10:35:12.596Z,18.59
2019-05-11T10:36:12.585Z,18.97
2019-05-11T10:37:12.584Z,19.12
2019-05-11T10:38:12.568Z,19.43
2019-05-11T10:39:12.552Z,19.80
2019-05-11T10:40:12.542Z,19.92
2019-05-11T10:41:12.533Z,19.40
2019-05-11T10:42:12.529Z,19.39
2019-05-11T10:43:12.509Z,19.20
2019-05-11T10:44:12.499Z,19.16
2019-05-11T10:45:12.488Z,19.09
2019-05-11T10:46:19.555Z,18.99
2019-05-11T10:47:13.479Z,18.69
2019-05-11T10:48:12.455Z,18.68
2019-05-11T10:49:12.444Z,18.51
2019-05-11T10:50:12.433Z,18.72
2019-05-11T10:51:12.421Z,18.96
2019-05-11T10:52:12.421Z,19.05
2019-05-11T10:53:12.401Z,18.84
2019-05-11T10:54:12.390Z,18.71
2019-05-11T10:55:12.379Z,18.54
2019-05-11T10:56:12.368Z,18.90
2019-05-11T10:57:12.367Z,19.34
2019-05-11T10:58:12.350Z,19.75
2019-05-11T10:59:15.489Z,19.86
2019-05-11T11:00:12.325Z,20.53
2019-05-11T11:01:12.315Z,20.75
2019-05-11T11:02:12.316Z,20.78
2019-05-11T11:03:12.293Z,20.78
2019-05-11T11:04:12.282Z,20.13
2019-05-11T11:05:12.273Z,20.38
2019-05-11T11:06:12.262Z,20.83
2019-05-11T11:07:12.261Z,21.18
2019-05-11T11:08:12.244Z,21.24
2019-05-11T11:09:12.231Z,21.21
2019-05-11T11:10:12.220Z,21.12
2019-05-11T11:11:12.210Z,20.90
2019-05-11T11:12:12.212Z,20.79
2019-05-11T11:13:12.191Z,21.19
2019-05-11T11:14:12.177Z,21.55
2019-05-11T11:15:12.170Z,21.64
2019-05-11T11:16:12.156Z,21.64
2019-05-11T11:17:12.155Z,21.46
2019-05-11T11:18:12.136Z,21.48
2019-05-11T11:19:12.127Z,20.78
2019-05-11T11:20:12.114Z,20.13
2019-05-11T11:21:12.104Z,20.75
2019-05-11T11:22:35.027Z,21.00
2019-05-11T11:23:13.083Z,21.09
2019-05-11T11:24:12.076Z,21.51
2019-05-11T11:25:12.065Z,21.66
2019-05-11T11:26:12.052Z,21.93
2019-05-11T11:27:12.053Z,22.42
2019-05-11T11:28:12.033Z,22.69
2019-05-11T11:29:12.023Z,22.93
2019-05-11T11:30:12.019Z,22.27
2019-05-11T11:31:12.028Z,22.11
2019-05-11T11:32:12.004Z,22.17
2019-05-11T11:33:11.983Z,22.27
2019-05-11T11:34:11.971Z,22.19
2019-05-11T11:35:11.960Z,22.26
2019-05-11T11:36:11.995Z,21.75
2019-05-11T11:37:11.940Z,21.37
2019-05-11T11:38:11.943Z,21.40
2019-05-11T11:39:11.920Z,21.27
2019-05-11T11:40:11.908Z,21.34
2019-05-11T11:41:11.956Z,21.68
2019-05-11T11:42:11.891Z,21.06
2019-05-11T11:43:11.889Z,21.08
2019-05-11T11:44:11.869Z,21.03
2019-05-11T11:45:11.860Z,20.41
2019-05-11T11:46:11.865Z,20.07
2019-05-11T11:47:11.842Z,20.96
2019-05-11T11:48:11.838Z,21.73
2019-05-11T11:49:11.819Z,21.96
2019-05-11T11:50:11.806Z,22.05
2019-05-11T11:51:11.795Z,21.27
2019-05-11T11:52:11.784Z,20.76
2019-05-11T11:53:11.783Z,21.49
2019-05-11T11:54:11.763Z,21.24
2019-05-11T11:55:11.752Z,21.79
2019-05-11T11:56:11.796Z,21.15
2019-05-11T11:57:11.736Z,20.83
2019-05-11T11:58:11.738Z,21.27
2019-05-11T11:59:11.712Z,21.74
2019-05-11T12:00:11.702Z,22.29
2019-05-11T12:01:11.691Z,22.26
2019-05-11T12:02:11.766Z,22.52
2019-05-11T12:03:11.679Z,22.75
2019-05-11T12:04:11.659Z,22.61
2019-05-11T12:05:11.652Z,22.70
2019-05-11T12:06:11.657Z,22.99
2019-05-11T12:07:11.629Z,22.01
2019-05-11T12:08:11.628Z,21.93
2019-05-11T12:09:11.609Z,21.11
2019-05-11T12:10:11.598Z,20.38
2019-05-11T12:11:11.586Z,19.90
2019-05-11T12:12:11.634Z,19.76
2019-05-11T12:13:11.601Z,20.07
2019-05-11T12:14:11.573Z,21.13
2019-05-11T12:15:11.601Z,21.75
2019-05-11T12:16:11.558Z,22.66
2019-05-11T12:17:11.566Z,22.61
2019-05-11T12:18:11.528Z,21.36
2019-05-11T12:19:11.505Z,21.64
2019-05-11T12:20:11.496Z,22.11
2019-05-11T12:21:11.483Z,21.98
2019-05-11T12:22:11.472Z,21.11
2019-05-11T12:23:11.475Z,20.56
2019-05-11T12:24:11.451Z,21.21
2019-05-11T12:25:11.441Z,21.64
2019-05-11T12:26:11.431Z,22.38
2019-05-11T12:27:11.424Z,23.22
2019-05-11T12:28:11.421Z,23.96
2019-05-11T12:29:11.401Z,24.18
2019-05-11T12:30:11.388Z,24.29
2019-05-11T12:31:11.380Z,23.68
2019-05-11T12:32:11.370Z,23.09
2019-05-11T12:33:11.372Z,22.88
2019-05-11T12:34:11.350Z,23.09
2019-05-11T12:35:11.338Z,23.54
2019-05-11T12:36:11.334Z,23.54
2019-05-11T12:37:11.319Z,23.67
2019-05-11T12:38:11.319Z,23.82
2019-05-11T12:39:11.297Z,24.00
2019-05-11T12:40:11.287Z,23.68
2019-05-11T12:41:11.279Z,23.79
2019-05-11T12:42:11.270Z,22.60
2019-05-11T12:43:11.268Z,22.06
2019-05-11T12:44:11.246Z,21.64
2019-05-11T12:45:11.237Z,21.48
2019-05-11T12:46:11.227Z,21.77
2019-05-11T12:47:21.093Z,22.06
2019-05-11T12:48:12.226Z,22.38
2019-05-11T12:49:11.195Z,22.49
2019-05-11T12:50:11.186Z,22.64
2019-05-11T12:51:11.174Z,22.51
2019-05-11T12:52:11.169Z,22.01